Аэропорт: Кызылорда. Кызылорда

ICAO: UAOO

METAR:
2018/11/19 10:00
UAOO 191000Z 09003MPS CAVOK 05/M12 Q1023 R05/CLRD70 NOSIG RMK QFE756/1008
METAR:
2018/04/18 00:06
TAF TAF UAOO 172300Z 1700/1809 27006MPS 9999 SCT033 BKN100